Time;durP1;ratioP1;P1;durP2;ratioP2;P2;SDS_P1;SDS_P2;PMS_P1;PMS_P2;Temp;Humidity;BMP_temperature;BMP_pressure;BME280_temperature;BME280_humidity;BME280_pressure;Samples;Min_cycle;Max_cycle;Signal;HPM_P1;HPM_P2
2022/07/07 00:01:24;;;;;;;2.10;1.00;;;17.50;6.10;;;17.62;49.73;101265.16;5069663;28;20595;-70
2022/07/07 00:03:54;;;;;;;1.93;1.10;;;17.50;6.20;;;17.57;49.93;101266.94;5069226;28;20410;-71
2022/07/07 00:06:23;;;;;;;1.10;0.93;;;17.40;6.50;;;17.65;49.54;101264.69;5072960;28;20492;-71
2022/07/07 00:08:54;;;;;;;4.13;1.13;;;17.50;6.10;;;17.64;49.76;101262.19;5069909;28;20505;-71
2022/07/07 00:11:23;;;;;;;1.87;0.90;;;17.50;6.30;;;17.67;49.47;101254.31;5073585;28;20449;-71
2022/07/07 00:13:54;;;;;;;2.40;0.80;;;17.50;6.30;;;17.77;49.52;101260.03;5074710;28;20449;-71
2022/07/07 00:16:24;;;;;;;3.00;1.20;;;17.60;6.20;;;17.67;49.65;101251.59;5075093;28;20417;-69
2022/07/07 00:18:53;;;;;;;2.13;0.80;;;17.50;6.00;;;17.76;49.36;101241.13;5071339;28;20466;-72
2022/07/07 00:21:22;;;;;;;2.20;1.67;;;17.60;5.80;;;17.63;49.84;101247.66;5074398;28;20413;-70
2022/07/07 00:23:51;;;;;;;1.57;1.00;;;17.50;6.00;;;17.69;49.80;101243.16;5074350;28;20409;-71
2022/07/07 00:26:20;;;;;;;3.57;1.07;;;17.50;6.40;;;17.71;49.28;101250.06;5074165;28;20477;-71
2022/07/07 00:28:50;;;;;;;6.23;1.60;;;17.50;5.90;;;17.57;50.00;101240.38;5071617;28;20517;-70
2022/07/07 00:31:20;;;;;;;1.40;0.67;;;17.40;6.20;;;17.69;49.54;101238.50;5074202;28;20397;-69
2022/07/07 00:33:49;;;;;;;1.60;0.87;;;17.50;6.40;;;17.71;49.76;101236.38;5074168;28;20468;-70
2022/07/07 00:36:19;;;;;;;1.20;1.00;;;17.50;6.40;;;17.67;50.06;101229.69;5074160;28;20890;-71
2022/07/07 00:38:48;;;;;;;1.83;1.07;;;17.50;6.50;;;17.70;49.65;101229.22;5072516;28;20781;-71
2022/07/07 00:41:17;;;;;;;2.73;0.90;;;17.50;6.30;;;17.67;49.77;101226.97;5074324;28;20433;-70
2022/07/07 00:43:46;;;;;;;2.50;1.30;;;17.50;6.30;;;17.87;49.25;101222.97;5074441;28;20480;-70
2022/07/07 00:46:15;;;;;;;1.73;1.00;;;17.60;6.30;;;17.83;49.64;101227.28;5073897;28;20874;-70
2022/07/07 00:48:46;;;;;;;1.63;1.20;;;17.60;6.30;;;17.64;49.67;101235.66;5074704;28;20438;-70
2022/07/07 00:51:15;;;;;;;2.97;0.93;;;17.50;6.00;;;17.80;49.74;101240.41;5074269;28;20426;-70
2022/07/07 00:53:44;;;;;;;1.40;0.93;;;17.50;6.50;;;17.52;49.87;101244.94;5074132;28;20445;-69
2022/07/07 00:56:13;;;;;;;3.53;0.90;;;17.40;6.10;;;17.18;50.57;101227.47;5071272;28;20929;-72
2022/07/07 00:58:42;;;;;;;2.20;1.37;;;17.20;6.50;;;17.50;50.23;101222.44;5074567;28;20525;-70
2022/07/07 01:01:11;;;;;;;2.40;1.00;;;17.20;6.90;;;17.43;50.19;101222.56;5074018;28;20430;-71
2022/07/07 01:03:40;;;;;;;4.57;1.63;;;17.20;6.90;;;17.38;50.32;101225.16;5070049;28;20421;-70
2022/07/07 01:06:12;;;;;;;1.10;0.70;;;17.20;6.70;;;17.16;50.98;101226.84;5073711;28;20485;-71
2022/07/07 01:08:41;;;;;;;2.30;1.37;;;17.10;7.00;;;17.05;51.63;101219.47;5073890;28;20508;-70
2022/07/07 01:11:10;;;;;;;1.77;0.80;;;16.90;7.90;;;17.01;52.32;101221.00;5063375;28;20410;-71
2022/07/07 01:13:40;;;;;;;3.20;0.97;;;16.90;9.10;;;16.93;53.53;101222.22;5068481;28;20784;-71
2022/07/07 01:16:09;;;;;;;1.77;1.10;;;16.80;10.50;;;16.72;54.83;101225.50;5073201;28;20454;-71
2022/07/07 01:18:38;;;;;;;3.27;0.83;;;16.60;12.30;;;16.52;55.49;101226.59;5073371;28;20462;-71
2022/07/07 01:21:10;;;;;;;3.70;1.37;;;16.50;14.00;;;16.30;57.10;101228.19;5073996;28;20812;-70
2022/07/07 01:23:40;;;;;;;2.73;1.00;;;16.20;17.60;;;16.26;58.16;101231.63;5073682;28;20469;-70
2022/07/07 01:26:09;;;;;;;4.73;1.10;;;16.10;21.10;;;16.07;60.13;101223.47;5072008;28;20491;-71
2022/07/07 01:28:38;;;;;;;2.83;1.30;;;16.00;27.60;;;15.91;60.04;101220.53;5073400;28;20513;-72
2022/07/07 01:31:07;;;;;;;2.60;0.90;;;15.80;31.90;;;15.73;61.69;101220.56;5073808;28;20517;-71
2022/07/07 01:33:36;;;;;;;1.30;1.00;;;15.70;42.00;;;15.44;62.62;101220.19;5073615;28;20449;-71
2022/07/07 01:36:06;;;;;;;2.03;1.13;;;15.50;51.40;;;15.43;64.47;101218.56;5095359;22;23112;-75
2022/07/07 01:38:37;;;;;;;2.40;1.43;;;15.40;71.90;;;15.39;64.49;101224.69;5038909;28;20464;-75
2022/07/07 01:41:08;;;;;;;1.73;1.13;;;15.30;83.90;;;15.59;65.41;101208.94;5043413;28;20443;-76
2022/07/07 01:43:37;;;;;;;1.50;1.10;;;15.40;94.20;;;15.63;64.33;101210.19;5050767;28;20433;-76
2022/07/07 01:46:07;;;;;;;1.50;1.10;;;15.40;96.00;;;15.95;64.31;101208.09;5050325;28;20454;-75
2022/07/07 01:48:36;;;;;;;4.63;1.00;;;15.60;97.70;;;15.96;65.96;101207.88;5042884;28;20738;-76
2022/07/07 01:51:05;;;;;;;1.70;1.10;;;15.70;99.90;;;16.32;63.92;101200.63;5050196;28;20406;-76
2022/07/07 01:53:35;;;;;;;2.07;1.10;;;15.90;97.20;;;16.48;64.42;101206.28;5046182;28;20543;-76
2022/07/07 01:56:07;;;;;;;1.00;0.60;;;16.10;96.20;;;16.19;65.36;101207.13;5044709;28;20435;-76
2022/07/07 01:58:36;;;;;;;4.90;0.97;;;16.00;98.30;;;16.47;64.33;101206.50;5033476;28;20471;-76
2022/07/07 02:01:05;;;;;;;1.50;1.20;;;16.10;98.00;;;16.11;66.15;101212.09;5032772;28;20538;-75
2022/07/07 02:03:34;;;;;;;5.80;1.27;;;16.00;99.30;;;15.93;67.85;101205.59;5049387;28;20506;-77
2022/07/07 02:06:04;;;;;;;5.27;1.17;;;15.80;99.90;;;15.68;68.18;101207.59;5031735;28;20452;-77
2022/07/07 02:08:33;;;;;;;2.17;1.10;;;15.60;99.90;;;15.81;68.35;101199.25;5050339;28;20630;-77
2022/07/07 02:11:15;;;;;;;1.30;0.93;;;15.60;99.90;;;16.12;66.11;101197.38;5029276;28;20794;-76
2022/07/07 02:13:48;;;;;;;4.40;1.27;;;15.70;99.90;;;16.11;67.53;101195.72;5051100;28;20426;-77
2022/07/07 02:16:22;;;;;;;1.73;1.17;;;15.90;99.90;;;16.06;67.34;101189.06;5053940;28;20435;-75
2022/07/07 02:18:56;;;;;;;2.30;1.23;;;15.80;99.90;;;15.93;68.82;101200.13;5037477;28;21074;-75
2022/07/07 02:21:25;;;;;;;2.30;1.40;;;15.80;99.90;;;16.00;68.62;101195.44;5046423;28;20909;-76
2022/07/07 02:23:57;;;;;;;2.43;1.50;;;15.80;99.90;;;15.78;69.83;101186.03;5051506;28;20443;-75
2022/07/07 02:26:27;;;;;;;3.00;1.30;;;15.70;99.90;;;15.99;69.33;101184.72;5047727;28;20493;-75
2022/07/07 02:28:57;;;;;;;1.30;0.90;;;15.70;99.90;;;15.84;70.01;101179.69;5034069;28;20451;-77
2022/07/07 02:31:26;;;;;;;2.57;1.83;;;15.70;99.90;;;15.44;72.15;101183.94;5049294;28;20410;-77
2022/07/07 02:33:55;;;;;;;2.27;1.30;;;15.50;99.90;;;15.58;71.34;101177.28;5045310;28;20845;-76
2022/07/07 02:36:23;;;;;;;1.80;1.07;;;15.50;99.90;;;15.81;70.86;101179.31;5039285;28;20444;-76
2022/07/07 02:38:53;;;;;;;2.00;1.10;;;15.60;99.90;;;15.52;72.04;101175.47;5049703;28;21031;-76
2022/07/07 02:41:22;;;;;;;2.60;1.23;;;15.40;99.90;;;15.75;71.85;101172.88;5034631;28;20470;-75
2022/07/07 02:43:52;;;;;;;2.03;1.10;;;15.50;99.90;;;15.90;71.13;101169.75;5050420;28;20427;-77
2022/07/07 02:46:23;;;;;;;4.40;1.97;;;15.70;99.90;;;15.76;71.70;101163.63;5045182;28;20430;-77
2022/07/07 02:48:52;;;;;;;5.03;1.30;;;15.60;99.90;;;15.76;71.53;101163.63;5030252;28;20826;-75
2022/07/07 02:51:21;;;;;;;2.60;1.00;;;15.60;99.90;;;15.80;72.61;101167.56;5043180;28;20826;-75
2022/07/07 02:53:49;;;;;;;1.60;1.17;;;15.60;99.90;;;15.59;71.56;101168.03;5034221;28;20413;-76
2022/07/07 02:56:18;;;;;;;1.30;1.10;;;15.50;99.90;;;15.64;72.50;101169.00;5045134;28;20439;-76
2022/07/07 02:58:47;;;;;;;3.70;1.80;;;15.40;99.90;;;15.49;73.25;101170.44;5037533;28;20455;-76
2022/07/07 03:01:16;;;;;;;2.37;1.10;;;15.30;99.90;;;15.55;73.63;101158.63;5047071;28;20834;-75
2022/07/07 03:03:46;;;;;;;3.53;1.70;;;15.40;99.90;;;15.73;73.84;101155.91;5049534;28;20454;-75
2022/07/07 03:06:15;;;;;;;3.70;1.70;;;15.50;99.90;;;15.45;73.69;101150.97;5045065;28;20455;-74
2022/07/07 03:08:44;;;;;;;3.80;1.50;;;15.30;99.90;;;15.94;71.47;101147.22;5036932;28;20450;-75
2022/07/07 03:11:13;;;;;;;3.73;1.53;;;15.70;99.90;;;16.14;71.71;101149.66;5048665;28;20777;-76
2022/07/07 03:13:42;;;;;;;3.37;1.23;;;15.80;99.90;;;16.41;70.56;101136.44;5046614;28;20513;-74
2022/07/07 03:16:11;;;;;;;1.70;1.27;;;16.00;99.90;;;16.67;69.05;101135.19;5047715;28;20431;-77
2022/07/07 03:18:40;;;;;;;2.50;1.50;;;16.30;99.90;;;16.64;69.48;101139.25;5052419;28;20430;-76
2022/07/07 03:21:10;;;;;;;2.80;1.43;;;16.30;99.90;;;16.44;70.19;101131.34;5054906;28;20410;-78
2022/07/07 03:23:39;;;;;;;2.10;1.40;;;16.20;99.90;;;16.37;70.39;101135.22;5072852;28;20451;-78
2022/07/07 03:26:08;;;;;;;1.50;1.30;;;16.20;99.90;;;16.28;71.43;101123.81;5057758;28;20834;-77
2022/07/07 03:28:37;;;;;;;2.23;1.13;;;16.10;99.90;;;16.17;71.67;101124.59;5057828;28;20868;-74
2022/07/07 03:31:06;;;;;;;6.30;1.50;;;16.00;99.90;;;15.91;73.10;101117.66;5052760;28;20438;-74
2022/07/07 03:33:35;;;;;;;1.60;1.43;;;15.90;99.90;;;15.82;73.71;101116.31;5048898;28;20465;-74
2022/07/07 03:36:05;;;;;;;2.57;1.40;;;15.70;99.90;;;16.04;72.68;101113.91;5056650;28;20431;-76
2022/07/07 03:38:35;;;;;;;5.20;1.97;;;15.80;99.90;;;16.14;73.07;101114.16;5048927;28;20459;-73
2022/07/07 03:41:04;;;;;;;3.40;1.90;;;15.90;99.90;;;16.06;73.78;101120.81;5051885;28;20412;-75
2022/07/07 03:43:33;;;;;;;2.70;2.07;;;15.90;99.90;;;15.62;74.92;101126.66;5058863;28;20459;-75
2022/07/07 03:46:02;;;;;;;3.03;1.73;;;15.70;99.90;;;15.65;74.11;101121.56;5060563;28;20641;-76
2022/07/07 03:48:31;;;;;;;2.27;2.07;;;15.60;99.90;;;15.61;74.42;101119.53;5049521;28;20763;-75
2022/07/07 03:51:00;;;;;;;6.10;3.50;;;15.50;99.90;;;15.56;74.76;101112.06;5062586;28;20412;-76
2022/07/07 03:53:29;;;;;;;4.17;2.13;;;15.50;99.90;;;15.48;74.94;101116.97;5068034;28;20430;-75
2022/07/07 03:56:00;;;;;;;2.40;2.20;;;15.40;99.90;;;15.43;75.49;101122.25;5060980;28;20542;-76
2022/07/07 03:58:29;;;;;;;3.10;2.10;;;15.30;99.90;;;15.37;75.52;101113.09;5046130;28;20430;-74
2022/07/07 04:00:59;;;;;;;2.20;1.50;;;15.30;99.90;;;15.28;76.23;101108.19;5052925;28;20792;-75
2022/07/07 04:03:29;;;;;;;2.73;1.60;;;15.20;99.90;;;15.50;75.52;101114.81;5058758;28;20501;-75
2022/07/07 04:05:58;;;;;;;6.07;1.87;;;15.30;99.90;;;15.20;76.09;101106.59;5060926;28;20439;-75
2022/07/07 04:08:27;;;;;;;3.00;2.27;;;15.10;99.90;;;15.49;75.95;101110.44;5059063;28;20423;-74
2022/07/07 04:10:56;;;;;;;4.60;2.17;;;15.20;99.90;;;15.31;76.97;101105.00;5039925;28;20533;-73
2022/07/07 04:13:26;;;;;;;3.43;2.27;;;15.20;99.90;;;15.00;78.63;101104.09;5057208;28;20506;-76
2022/07/07 04:15:57;;;;;;;3.40;1.90;;;15.00;99.90;;;15.19;77.61;101096.75;5042463;28;20455;-76
2022/07/07 04:18:27;;;;;;;3.97;2.43;;;15.00;99.90;;;15.11;77.40;101095.16;5032004;28;20492;-77
2022/07/07 04:20:56;;;;;;;4.80;2.20;;;15.00;99.90;;;15.03;77.50;101089.16;5042288;28;20475;-75
2022/07/07 04:23:25;;;;;;;2.77;2.00;;;14.90;99.90;;;14.94;78.55;101088.66;5033112;28;20976;-75
2022/07/07 04:25:55;;;;;;;3.90;2.03;;;14.90;99.90;;;14.91;78.69;101086.34;5034163;28;20809;-77
2022/07/07 04:28:25;;;;;;;2.87;2.10;;;14.80;99.90;;;15.15;77.96;101074.53;5031776;28;20407;-75
2022/07/07 04:30:54;;;;;;;2.70;2.40;;;15.00;99.90;;;15.04;78.17;101069.88;5052471;28;20936;-74
2022/07/07 04:33:23;;;;;;;4.83;2.40;;;14.90;99.90;;;14.96;78.63;101064.72;5034263;28;21152;-74
2022/07/07 04:35:53;;;;;;;3.67;2.43;;;14.80;99.90;;;15.29;77.33;101067.06;5050393;28;20402;-75
2022/07/07 04:38:22;;;;;;;4.30;2.30;;;15.00;99.90;;;15.85;75.16;101063.16;5049213;28;20769;-76
2022/07/07 04:40:51;;;;;;;2.00;1.80;;;15.40;99.90;;;15.65;75.37;101061.56;5045396;28;20439;-75
2022/07/07 04:43:19;;;;;;;6.07;1.80;;;15.40;99.90;;;15.35;77.28;101046.19;5051834;28;20430;-75
2022/07/07 04:45:50;;;;;;;2.20;1.80;;;15.30;99.90;;;15.40;77.17;101058.09;5052034;28;20442;-76
2022/07/07 04:48:19;;;;;;;3.40;2.00;;;15.20;99.90;;;15.13;77.94;101063.06;5047437;28;20941;-76
2022/07/07 04:50:48;;;;;;;2.63;2.27;;;15.10;99.90;;;15.06;78.97;101051.38;5052810;28;20518;-75
2022/07/07 04:53:17;;;;;;;2.70;2.10;;;15.00;99.90;;;15.01;78.77;101056.69;5048539;28;20512;-74
2022/07/07 04:55:46;;;;;;;2.77;1.83;;;14.90;99.90;;;15.11;79.41;101048.81;5047051;28;20773;-75
2022/07/07 04:58:15;;;;;;;3.63;2.53;;;15.00;99.90;;;15.21;79.26;101051.84;5065053;28;20496;-77
2022/07/07 05:00:44;;;;;;;5.20;2.50;;;15.00;99.90;;;15.36;78.43;101045.16;5048192;28;20752;-76
2022/07/07 05:03:14;;;;;;;2.43;2.23;;;15.00;99.90;;;15.32;78.18;101043.94;5051426;28;20889;-77
2022/07/07 05:05:43;;;;;;;6.83;2.80;;;15.00;99.90;;;15.54;77.73;101045.16;5047717;28;20403;-76
2022/07/07 05:08:12;;;;;;;4.87;2.37;;;15.20;99.90;;;15.49;78.06;101040.34;5045329;28;20406;-76
2022/07/07 05:10:41;;;;;;;3.13;2.73;;;15.10;99.90;;;15.65;77.00;101028.81;5046304;28;20406;-78
2022/07/07 05:13:10;;;;;;;1.90;1.70;;;15.30;99.90;;;15.31;77.32;101040.38;5051622;28;20461;-77
2022/07/07 05:15:38;;;;;;;3.60;3.10;;;15.20;99.90;;;15.34;78.41;101030.94;5051513;28;20439;-76
2022/07/07 05:18:07;;;;;;;3.70;2.77;;;15.10;99.90;;;15.28;78.54;101029.13;5051481;28;20954;-76
2022/07/07 05:20:38;;;;;;;3.80;2.70;;;15.10;99.90;;;15.39;78.72;101026.47;5051415;28;20769;-76
2022/07/07 05:23:07;;;;;;;4.50;2.37;;;15.10;99.90;;;15.49;78.02;101037.63;5041874;28;20822;-76
2022/07/07 05:25:36;;;;;;;4.57;2.50;;;15.20;99.90;;;15.28;78.53;101026.38;5051229;28;20434;-79
2022/07/07 05:28:05;;;;;;;3.23;2.20;;;15.10;99.90;;;15.37;78.74;101025.00;5030207;28;20478;-79
2022/07/07 05:30:34;;;;;;;2.47;2.23;;;15.10;99.90;;;15.48;78.90;101033.25;5051213;28;20402;-77
2022/07/07 05:33:07;;;;;;;3.53;2.10;;;15.20;99.90;;;15.61;77.15;101026.78;5031094;28;20459;-77
2022/07/07 05:35:38;;;;;;;2.00;1.63;;;15.20;99.90;;;15.61;77.27;101032.25;5050711;28;20492;-77
2022/07/07 05:38:07;;;;;;;1.83;1.73;;;15.30;99.90;;;15.77;76.96;101034.34;5046645;28;20748;-75
2022/07/07 05:40:36;;;;;;;3.17;2.17;;;15.50;99.90;;;15.71;76.92;101032.53;5044241;28;20974;-76
2022/07/07 05:43:13;;;;;;;3.27;1.80;;;15.40;99.90;;;15.84;77.16;101026.84;5041288;28;20450;-75
2022/07/07 05:45:42;;;;;;;2.70;2.10;;;15.50;99.90;;;16.01;75.88;101033.31;5051119;28;20934;-75
2022/07/07 05:48:11;;;;;;;4.47;2.37;;;15.80;99.90;;;15.96;76.16;101030.47;5051523;28;20903;-76
2022/07/07 05:50:41;;;;;;;5.73;2.30;;;15.80;99.90;;;15.91;76.25;101033.06;5051511;28;20489;-76
2022/07/07 05:53:11;;;;;;;4.97;2.10;;;15.70;99.90;;;15.96;76.87;101029.63;5045294;28;20495;-77
2022/07/07 05:55:40;;;;;;;2.90;2.37;;;15.60;99.90;;;15.99;77.01;101032.72;5037427;28;20415;-76
2022/07/07 05:58:09;;;;;;;8.93;2.53;;;15.70;99.90;;;15.90;76.91;101030.56;5044879;28;20504;-77
2022/07/07 06:00:38;;;;;;;3.33;1.70;;;15.70;99.90;;;15.77;77.11;101031.59;5050133;28;20532;-76
2022/07/07 06:03:07;;;;;;;2.57;2.33;;;15.50;99.90;;;15.72;77.49;101028.75;5050827;28;20699;-77
2022/07/07 06:05:36;;;;;;;2.47;1.77;;;15.50;99.90;;;15.38;78.61;101022.06;5040277;28;20430;-77
2022/07/07 06:08:07;;;;;;;2.87;2.50;;;15.20;99.90;;;15.54;78.71;101015.16;5048944;28;20470;-79
2022/07/07 06:10:36;;;;;;;6.03;1.80;;;15.20;99.90;;;15.75;77.99;101020.06;5050343;28;20427;-76
2022/07/07 06:13:06;;;;;;;2.90;2.40;;;15.50;99.90;;;15.78;78.21;101021.53;5050442;28;20490;-79
2022/07/07 06:15:35;;;;;;;3.07;2.33;;;15.50;99.90;;;15.79;77.26;101029.47;5050781;28;20434;-80
2022/07/07 06:18:04;;;;;;;3.00;2.77;;;15.50;99.90;;;15.61;78.92;101021.34;5037974;28;20459;-76
2022/07/07 06:20:37;;;;;;;3.57;2.20;;;15.50;99.90;;;15.63;79.02;101022.78;5038278;28;20463;-76
2022/07/07 06:23:08;;;;;;;3.10;2.80;;;15.30;99.90;;;15.74;78.50;101023.88;5039661;28;20460;-78
2022/07/07 06:25:37;;;;;;;3.43;2.53;;;15.50;99.90;;;15.82;77.84;101018.09;5051426;28;20431;-77
2022/07/07 06:28:06;;;;;;;2.90;2.60;;;15.50;99.90;;;15.78;77.93;101013.34;5052140;28;20445;-78
2022/07/07 06:30:35;;;;;;;2.40;2.13;;;15.50;99.90;;;15.79;78.10;101018.53;5034446;28;20445;-78
2022/07/07 06:33:04;;;;;;;3.07;2.47;;;15.60;99.90;;;15.70;78.68;101017.22;5037411;28;20422;-77
2022/07/07 06:35:33;;;;;;;3.20;2.30;;;15.40;99.90;;;15.76;78.95;101019.03;5045944;28;20440;-76
2022/07/07 06:38:03;;;;;;;3.13;2.60;;;15.50;99.90;;;15.93;77.84;101020.00;5050385;28;20417;-76
2022/07/07 06:40:33;;;;;;;2.97;2.70;;;15.60;99.90;;;15.90;77.75;101009.56;5031720;28;20468;-75
2022/07/07 06:43:02;;;;;;;2.60;2.13;;;15.60;99.90;;;15.71;78.69;101016.16;5045255;28;20459;-77
2022/07/07 06:45:32;;;;;;;2.00;1.83;;;15.60;99.90;;;16.08;77.34;101014.09;5050971;28;20402;-77
2022/07/07 06:48:01;;;;;;;2.90;2.27;;;15.70;99.90;;;16.27;76.52;101020.28;5067136;22;20494;-68
2022/07/07 06:50:30;;;;;;;4.10;2.80;;;15.90;99.90;;;16.36;75.55;101021.59;5055276;28;20436;-72
2022/07/07 06:52:59;;;;;;;3.13;2.00;;;16.00;99.90;;;16.30;76.03;101014.34;5057124;28;20409;-72
2022/07/07 06:55:28;;;;;;;2.33;1.90;;;16.00;99.90;;;16.49;74.58;101013.16;5037395;28;20495;-73
2022/07/07 06:57:58;;;;;;;2.90;2.70;;;16.20;99.90;;;16.22;76.50;101020.97;5059919;28;20460;-73
2022/07/07 07:00:38;;;;;;;2.37;2.03;;;16.00;99.90;;;16.16;76.94;101019.22;5055737;28;20453;-70
2022/07/07 07:03:07;;;;;;;3.30;3.00;;;15.90;99.90;;;16.21;77.02;101015.78;5005589;28;20983;-71
2022/07/07 07:05:36;;;;;;;2.80;1.90;;;16.00;99.90;;;16.19;77.31;101013.28;5010518;28;20437;-71
2022/07/07 07:08:06;;;;;;;2.90;1.93;;;15.90;99.90;;;16.02;78.17;101010.41;5006887;28;20414;-73
2022/07/07 07:10:34;;;;;;;3.80;2.10;;;15.80;99.90;;;15.96;77.98;101019.53;5007776;28;20463;-73
2022/07/07 07:13:05;;;;;;;2.53;2.07;;;15.70;99.90;;;16.17;77.94;101020.06;5007796;28;20841;-73
2022/07/07 07:15:33;;;;;;;2.53;2.33;;;15.80;99.90;;;16.22;77.42;101011.97;5006329;28;20441;-72
2022/07/07 07:18:03;;;;;;;2.40;2.20;;;15.90;99.90;;;16.34;76.80;101012.81;5008328;28;20503;-71
2022/07/07 07:20:32;;;;;;;3.83;1.97;;;16.00;99.90;;;16.45;77.09;101012.00;5014852;28;20468;-70
2022/07/07 07:23:00;;;;;;;2.17;1.80;;;16.10;99.90;;;16.52;75.71;101013.50;5016344;28;20427;-71
2022/07/07 07:25:30;;;;;;;1.90;1.80;;;16.10;99.90;;;16.43;76.03;101003.19;5016419;28;20411;-73
2022/07/07 07:27:59;;;;;;;1.80;1.70;;;16.10;99.90;;;16.27;76.82;101010.19;5015070;28;20435;-71
2022/07/07 07:30:29;;;;;;;1.67;1.47;;;16.10;99.90;;;16.22;76.84;101011.97;5020622;28;20757;-72
2022/07/07 07:32:58;;;;;;;2.37;1.90;;;16.10;99.90;;;16.03;78.69;101011.22;5019167;28;20464;-71
2022/07/07 07:35:28;;;;;;;2.10;1.60;;;15.90;99.90;;;16.16;78.28;101007.47;5014870;28;20449;-71
2022/07/07 07:37:56;;;;;;;2.37;1.70;;;15.80;99.90;;;16.30;77.35;101008.91;5008014;28;20618;-72
2022/07/07 07:40:26;;;;;;;3.67;2.27;;;16.00;99.90;;;16.37;77.37;101004.13;4996066;28;20914;-72
2022/07/07 07:42:55;;;;;;;2.03;1.83;;;16.00;99.90;;;16.73;75.98;101006.66;5008397;28;20491;-72
2022/07/07 07:45:24;;;;;;;2.57;1.90;;;16.20;99.90;;;16.93;74.91;100998.88;5009685;28;20928;-70
2022/07/07 07:47:54;;;;;;;2.63;2.37;;;16.40;99.90;;;16.95;74.90;100995.91;5010118;28;20436;-71
2022/07/07 07:50:23;;;;;;;2.40;1.83;;;16.60;99.90;;;16.95;75.44;100996.72;5010297;28;20798;-73
2022/07/07 07:52:52;;;;;;;7.27;2.33;;;16.60;99.90;;;17.26;74.23;100995.44;5008264;28;20421;-71
2022/07/07 07:55:22;;;;;;;3.37;2.10;;;16.90;99.90;;;17.28;73.74;101001.50;5011267;28;20476;-72
2022/07/07 07:57:53;;;;;;;3.87;3.20;;;16.90;99.90;;;17.52;73.36;100998.69;5012880;28;20436;-72
2022/07/07 08:00:23;;;;;;;2.43;2.23;;;17.10;99.90;;;17.38;72.92;100998.13;5009879;28;20890;-72
2022/07/07 08:02:53;;;;;;;3.03;2.83;;;16.90;99.90;;;17.51;74.00;101000.59;5003544;28;20493;-71
2022/07/07 08:05:22;;;;;;;2.53;2.30;;;17.20;99.90;;;17.27;74.24;100996.28;5007685;28;20401;-71
2022/07/07 08:07:51;;;;;;;2.80;2.60;;;17.10;99.90;;;17.59;73.78;100997.47;5009828;28;20918;-71
2022/07/07 08:10:20;;;;;;;2.40;2.20;;;17.20;99.90;;;17.37;74.41;100999.22;5011640;28;20408;-70
2022/07/07 08:12:49;;;;;;;4.13;2.37;;;17.20;99.90;;;17.27;74.34;100994.38;5008392;28;21009;-72
2022/07/07 08:15:19;;;;;;;3.60;3.07;;;17.10;99.90;;;17.19;74.85;101000.22;5009442;28;20441;-71
2022/07/07 08:17:49;;;;;;;2.67;2.47;;;17.00;99.90;;;17.30;74.44;100998.53;5007114;28;20411;-69
2022/07/07 08:20:19;;;;;;;2.40;2.20;;;16.90;99.90;;;17.53;75.24;100995.69;5007772;28;20431;-70
2022/07/07 08:22:48;;;;;;;2.80;2.50;;;17.10;99.90;;;17.52;74.25;100990.47;5004254;28;20474;-72
2022/07/07 08:25:17;;;;;;;3.07;2.60;;;17.10;99.90;;;17.66;74.83;100991.84;5010140;28;20407;-71
2022/07/07 08:27:46;;;;;;;3.10;2.67;;;17.20;99.90;;;17.52;74.62;100999.50;5004125;28;20440;-71
2022/07/07 08:30:15;;;;;;;2.57;2.13;;;17.20;99.90;;;17.43;73.89;100991.94;5007602;28;20838;-70
2022/07/07 08:32:45;;;;;;;2.50;2.30;;;17.10;99.90;;;17.35;75.49;100995.88;5023055;28;20996;-72
2022/07/07 08:35:16;;;;;;;4.93;3.20;;;17.10;99.90;;;17.37;75.24;101000.06;5013825;28;20894;-74
2022/07/07 08:37:46;;;;;;;3.40;2.93;;;17.10;99.90;;;17.30;76.05;101001.25;5009907;28;20503;-69
2022/07/07 08:40:15;;;;;;;3.33;2.93;;;17.00;99.90;;;17.32;75.94;100990.91;5004231;28;20759;-70
2022/07/07 08:42:43;;;;;;;2.70;2.30;;;17.00;99.90;;;17.47;75.06;100999.41;5003705;28;20431;-72
2022/07/07 08:45:13;;;;;;;4.00;2.70;;;17.00;99.90;;;17.57;75.24;100999.56;5005600;28;20491;-71
2022/07/07 08:47:43;;;;;;;2.23;2.03;;;17.10;99.90;;;17.62;75.18;100996.16;5009936;28;20431;-71
2022/07/07 08:50:17;;;;;;;2.97;2.67;;;17.20;99.90;;;17.64;74.30;101002.19;5005474;28;20785;-71
2022/07/07 08:52:52;;;;;;;2.90;2.37;;;17.20;99.90;;;17.78;74.13;100992.59;5015885;28;20492;-71
2022/07/07 08:55:23;;;;;;;3.43;2.67;;;17.40;99.90;;;17.80;73.83;100994.03;5021739;28;20792;-71
2022/07/07 08:57:53;;;;;;;5.20;3.47;;;17.40;99.90;;;18.08;72.16;100986.81;5016697;28;20423;-71
2022/07/07 09:00:23;;;;;;;4.27;3.20;;;17.60;99.90;;;18.01;72.32;100994.38;5017701;28;20498;-70
2022/07/07 09:02:57;;;;;;;2.57;2.37;;;17.60;99.90;;;17.86;73.66;100985.91;5010665;28;20436;-72
2022/07/07 09:05:27;;;;;;;3.17;2.87;;;17.60;99.90;;;18.18;72.16;100989.72;5013528;28;20780;-73
2022/07/07 09:07:57;;;;;;;3.13;2.67;;;17.70;99.90;;;18.20;73.14;100993.03;5015690;28;20414;-72
2022/07/07 09:10:32;;;;;;;2.70;2.50;;;17.70;99.90;;;18.23;73.70;100987.06;5006748;28;20797;-71
2022/07/07 09:13:01;;;;;;;3.70;3.00;;;17.80;99.90;;;18.17;73.50;100986.16;5007145;28;20506;-72
2022/07/07 09:15:40;;;;;;;4.53;2.50;;;17.80;99.90;;;18.29;72.12;100991.53;5014044;28;20817;-70
2022/07/07 09:18:09;;;;;;;3.03;2.73;;;17.80;99.90;;;18.56;71.55;100983.47;5006441;28;20502;-71
2022/07/07 09:20:38;;;;;;;2.10;1.90;;;18.00;99.90;;;18.51;71.21;100988.84;5012991;28;20477;-73
2022/07/07 09:23:08;;;;;;;2.90;2.40;;;18.00;99.90;;;18.43;71.21;100998.31;5004304;28;20436;-71
2022/07/07 09:25:42;;;;;;;3.13;2.83;;;18.10;99.90;;;18.55;70.94;100995.50;5013353;28;20486;-71
2022/07/07 09:28:11;;;;;;;7.17;5.50;;;18.00;99.90;;;18.73;70.47;100986.19;5009436;28;20506;-72
2022/07/07 09:30:43;;;;;;;3.27;2.97;;;18.20;99.90;;;18.63;71.42;100995.09;5003554;28;20413;-71
2022/07/07 09:33:15;;;;;;;2.60;2.30;;;18.20;99.90;;;18.52;72.41;100993.25;5011357;28;20478;-73
2022/07/07 09:38:34;;;;;;;2.60;2.40;;;18.10;99.90;;;18.34;72.30;100997.09;5010231;28;20433;-71
2022/07/07 09:41:05;;;;;;;4.23;3.43;;;18.00;99.90;;;17.93;74.15;101000.25;5010673;28;20511;-71
2022/07/07 09:43:36;;;;;;;3.30;3.00;;;17.80;99.90;;;17.94;74.48;100996.44;5006710;28;20480;-71
2022/07/07 09:46:15;;;;;;;2.70;2.50;;;17.70;99.90;;;18.29;73.16;101002.50;5013269;28;20420;-72
2022/07/07 09:48:49;;;;;;;3.30;3.00;;;17.80;99.90;;;18.52;71.79;101002.28;5000545;28;20430;-71
2022/07/07 09:51:23;;;;;;;3.10;2.83;;;18.00;99.90;;;18.29;72.92;101001.66;5004529;28;20528;-76
2022/07/07 09:54:03;;;;;;;3.50;3.20;;;18.00;99.90;;;17.96;73.57;101003.31;5013216;28;20568;-71
2022/07/07 09:56:35;;;;;;;3.30;3.10;;;17.90;99.90;;;17.84;74.24;101009.94;5011012;28;20411;-72
2022/07/07 09:59:06;;;;;;;3.23;2.80;;;17.70;99.90;;;17.68;75.29;101006.94;5007121;28;20515;-70
2022/07/07 10:01:38;;;;;;;4.10;3.30;;;17.60;99.90;;;17.84;75.09;101005.31;5005074;28;20543;-71
2022/07/07 10:04:10;;;;;;;2.90;2.70;;;17.60;99.90;;;17.59;75.89;101007.59;5004291;28;20430;-72
2022/07/07 10:06:42;;;;;;;3.47;3.17;;;17.40;99.90;;;17.80;74.95;101002.25;5008760;28;20408;-72
2022/07/07 10:09:18;;;;;;;3.43;3.17;;;17.50;99.90;;;18.50;72.51;101007.19;5000761;28;20451;-72
2022/07/07 10:11:50;;;;;;;4.00;3.67;;;17.90;99.90;;;18.52;72.85;101016.00;5009747;28;20570;-70
2022/07/07 10:14:23;;;;;;;3.40;3.10;;;18.00;99.90;;;18.72;71.58;101007.28;5006909;28;21006;-72
2022/07/07 10:16:55;;;;;;;3.20;3.00;;;18.20;99.90;;;18.79;71.78;101012.56;5013270;28;20439;-73
2022/07/07 10:19:26;;;;;;;3.70;3.33;;;18.30;99.90;;;18.80;71.16;101009.56;5001418;28;20920;-71
2022/07/07 10:21:58;;;;;;;3.30;2.73;;;18.50;99.90;;;18.78;71.53;101011.75;5013946;28;20809;-73
2022/07/07 10:24:32;;;;;;;4.07;3.67;;;18.40;99.90;;;18.97;69.48;101010.34;5002327;28;20412;-71
2022/07/07 10:27:04;;;;;;;3.43;3.20;;;18.40;99.90;;;18.84;71.20;101007.97;4994452;28;20424;-70